Time;durP1;ratioP1;P1;durP2;ratioP2;P2;SDS_P1;SDS_P2;PMS_P1;PMS_P2;Temp;Humidity;BMP_temperature;BMP_pressure;BME280_temperature;BME280_humidity;BME280_pressure;Samples;Min_cycle;Max_cycle;Signal;HPM_P1;HPM_P2
2022/09/03 00:00:40;;;;;;;9.07;1.40;;;18.00;67.20;;;;;;5091745;28;20441;-63
2022/09/03 00:03:32;;;;;;;1.90;1.30;;;17.90;67.10;;;;;;5084221;28;20109;-64
2022/09/03 00:06:19;;;;;;;;;;;17.90;67.30;;;;;;5084935;28;20050;-63
2022/09/03 00:09:02;;;;;;;4.18;1.58;;;17.90;67.40;;;;;;5088510;28;19919;-63
2022/09/03 00:11:57;;;;;;;2.83;1.42;;;17.80;67.30;;;;;;5089988;28;20039;-66
2022/09/03 00:14:44;;;;;;;3.28;1.55;;;17.80;67.30;;;;;;5084657;28;20050;-63
2022/09/03 00:17:15;;;;;;;3.38;1.33;;;17.80;67.40;;;;;;5089500;28;20086;-66
2022/09/03 00:20:01;;;;;;;3.03;1.13;;;17.80;67.40;;;;;;5095409;28;20119;-63
2022/09/03 00:22:32;;;;;;;5.60;1.48;;;17.70;67.40;;;;;;5092686;28;20082;-62
2022/09/03 00:25:01;;;;;;;4.97;2.40;;;17.70;67.50;;;;;;5101042;28;20508;-63
2022/09/03 00:27:30;;;;;;;3.00;1.30;;;17.70;67.50;;;;;;5093996;28;20036;-63
2022/09/03 00:30:13;;;;;;;1.73;1.20;;;17.70;67.60;;;;;;5095291;28;20093;-64
2022/09/03 00:32:41;;;;;;;4.13;1.60;;;17.60;67.80;;;;;;5091106;28;20056;-63
2022/09/03 00:35:16;;;;;;;3.08;1.33;;;17.60;67.80;;;;;;5091466;28;20040;-62
2022/09/03 00:37:43;;;;;;;3.83;1.75;;;17.60;67.90;;;;;;5093733;28;20460;-66
2022/09/03 00:40:29;;;;;;;5.07;1.50;;;17.60;68.00;;;;;;5098252;28;20039;-63
2022/09/03 00:43:07;;;;;;;2.85;1.38;;;17.50;68.20;;;;;;5098240;28;20126;-63
2022/09/03 00:45:48;;;;;;;1.80;1.30;;;17.50;68.30;;;;;;5091640;28;20048;-62
2022/09/03 00:48:22;;;;;;;3.33;1.40;;;17.40;68.20;;;;;;5083956;28;20036;-62
2022/09/03 00:51:06;;;;;;;2.45;1.33;;;17.40;68.20;;;;;;5071582;28;21454;-62
2022/09/03 00:53:51;;;;;;;1.98;1.10;;;17.50;68.20;;;;;;5093343;28;20040;-63
2022/09/03 00:56:47;;;;;;;2.33;1.00;;;17.40;68.10;;;;;;5078383;28;20035;-63
2022/09/03 00:59:40;;;;;;;5.78;1.33;;;17.40;68.20;;;;;;5066545;28;20429;-63
2022/09/03 01:02:28;;;;;;;2.13;1.10;;;17.40;68.20;;;;;;5069812;28;20074;-64
2022/09/03 01:05:17;;;;;;;2.95;1.10;;;17.40;68.40;;;;;;5097350;28;20122;-63
2022/09/03 01:08:03;;;;;;;1.58;1.15;;;17.30;68.30;;;;;;5088638;28;20516;-62
2022/09/03 01:10:43;;;;;;;2.78;1.13;;;17.30;68.20;;;;;;5058285;28;20053;-62
2022/09/03 01:13:40;;;;;;;1.95;1.30;;;17.30;68.30;;;;;;5093184;28;20123;-62
2022/09/03 01:16:45;;;;;;;1.98;1.02;;;17.30;68.40;;;;;;5094459;28;20031;-63
2022/09/03 01:19:29;;;;;;;2.97;1.27;;;17.20;68.50;;;;;;5088013;28;20438;-63
2022/09/03 01:22:07;;;;;;;2.70;1.13;;;17.20;68.40;;;;;;5084331;28;20032;-62
2022/09/03 01:24:49;;;;;;;2.75;1.40;;;17.20;68.60;;;;;;5095186;28;20145;-63
2022/09/03 01:27:40;;;;;;;1.35;1.00;;;17.20;68.60;;;;;;5094607;28;20414;-64
2022/09/03 01:30:17;;;;;;;5.07;1.30;;;17.20;68.80;;;;;;5077926;28;20048;-64
2022/09/03 01:32:48;;;;;;;4.47;1.05;;;17.10;68.70;;;;;;5099493;28;20047;-65
2022/09/03 01:35:18;;;;;;;2.63;1.20;;;17.10;68.80;;;;;;5084493;28;20044;-64
2022/09/03 01:37:52;;;;;;;4.22;1.00;;;17.10;68.80;;;;;;5063950;28;20125;-64
2022/09/03 01:40:36;;;;;;;3.65;1.10;;;17.00;68.90;;;;;;5072186;28;20041;-64
2022/09/03 01:43:35;;;;;;;3.17;1.20;;;17.00;68.90;;;;;;5072361;28;20043;-64
2022/09/03 01:46:25;;;;;;;1.67;1.15;;;17.00;69.00;;;;;;5080150;28;20047;-65
2022/09/03 01:49:03;;;;;;;1.80;1.23;;;17.00;69.20;;;;;;5082436;28;20032;-64
2022/09/03 01:51:31;;;;;;;3.28;1.10;;;16.90;69.20;;;;;;5080324;28;20041;-64
2022/09/03 01:54:16;;;;;;;4.93;1.25;;;16.90;69.80;;;;;;5078830;28;20489;-64
2022/09/03 01:57:16;;;;;;;3.13;1.35;;;16.90;69.40;;;;;;5085807;28;20050;-64
2022/09/03 02:00:14;;;;;;;1.50;1.20;;;16.90;69.50;;;;;;5098422;28;20037;-64
2022/09/03 02:02:48;;;;;;;1.65;1.33;;;16.80;69.50;;;;;;5103477;28;20126;-65
2022/09/03 02:05:26;;;;;;;2.05;1.00;;;16.80;69.50;;;;;;5101899;28;20081;-65
2022/09/03 02:08:00;;;;;;;2.47;1.20;;;16.80;69.70;;;;;;5086713;28;20044;-65
2022/09/03 02:10:32;;;;;;;2.25;1.10;;;16.70;69.70;;;;;;5091134;28;20028;-65
2022/09/03 02:13:20;;;;;;;2.43;1.20;;;16.70;69.80;;;;;;5082263;28;20044;-64
2022/09/03 02:15:49;;;;;;;4.75;1.27;;;16.70;70.00;;;;;;5091985;28;20274;-64
2022/09/03 02:18:29;;;;;;;2.35;1.10;;;16.70;69.90;;;;;;5093639;28;20039;-65
2022/09/03 02:20:58;;;;;;;4.82;1.20;;;16.70;70.00;;;;;;5083252;28;20028;-65
2022/09/03 02:23:24;;;;;;;1.13;1.00;;;16.70;70.00;;;;;;5087398;28;20380;-64
2022/09/03 02:25:59;;;;;;;1.63;1.00;;;16.80;70.60;;;;;;5094594;28;20092;-64
2022/09/03 02:28:26;;;;;;;3.38;1.15;;;16.80;70.10;;;;;;5091810;28;20039;-64
2022/09/03 02:30:52;;;;;;;3.63;1.10;;;16.80;70.10;;;;;;5084018;28;20485;-64
2022/09/03 02:33:18;;;;;;;5.28;1.38;;;16.80;70.20;;;;;;5088731;28;20044;-64
2022/09/03 02:35:45;;;;;;;4.13;1.10;;;16.70;70.20;;;;;;5086857;28;20037;-64
2022/09/03 02:38:19;;;;;;;3.38;1.20;;;16.80;70.30;;;;;;5101042;28;20039;-64
2022/09/03 02:40:45;;;;;;;1.73;0.93;;;16.70;70.30;;;;;;5085681;28;20103;-64
2022/09/03 02:43:21;;;;;;;2.90;1.13;;;16.70;70.40;;;;;;5100954;28;20114;-64
2022/09/03 02:45:52;;;;;;;3.20;1.10;;;16.80;70.50;;;;;;5097126;28;20052;-64
2022/09/03 02:48:21;;;;;;;2.97;1.15;;;16.70;70.50;;;;;;5086995;28;20043;-64
2022/09/03 02:50:47;;;;;;;3.75;1.20;;;16.70;70.50;;;;;;5077252;28;20043;-64
2022/09/03 02:53:13;;;;;;;3.30;1.17;;;16.70;70.60;;;;;;5085282;28;20040;-64
2022/09/03 02:55:38;;;;;;;2.63;1.13;;;16.70;70.70;;;;;;5096141;28;20075;-64
2022/09/03 02:58:07;;;;;;;4.50;1.25;;;16.70;70.70;;;;;;5096550;28;20058;-65
2022/09/03 03:00:34;;;;;;;2.33;1.02;;;16.80;70.90;;;;;;5080980;28;20048;-64
2022/09/03 03:03:01;;;;;;;2.90;1.23;;;16.70;70.80;;;;;;5085720;28;20418;-64
2022/09/03 03:05:40;;;;;;;2.00;1.00;;;16.80;70.90;;;;;;5090786;28;20048;-64
2022/09/03 03:08:07;;;;;;;3.75;1.25;;;16.70;71.00;;;;;;5091842;28;20039;-65
2022/09/03 03:10:34;;;;;;;4.07;1.13;;;16.70;71.10;;;;;;5092813;28;20044;-64
2022/09/03 03:13:00;;;;;;;3.38;1.10;;;16.70;71.10;;;;;;5100756;28;20055;-64
2022/09/03 03:15:27;;;;;;;1.75;1.17;;;16.70;71.10;;;;;;5102650;28;20063;-64
2022/09/03 03:17:55;;;;;;;2.45;1.20;;;16.70;71.10;;;;;;5096133;28;20505;-64
2022/09/03 03:20:22;;;;;;;1.67;1.13;;;16.70;71.10;;;;;;5090192;28;20446;-64
2022/09/03 03:22:47;;;;;;;3.30;1.10;;;16.60;71.10;;;;;;5078272;28;20048;-64
2022/09/03 03:25:13;;;;;;;0.90;0.82;;;16.60;71.30;;;;;;5085533;28;20048;-64
2022/09/03 03:27:41;;;;;;;3.88;1.33;;;16.60;71.30;;;;;;5097377;28;20096;-64
2022/09/03 03:30:09;;;;;;;1.52;1.05;;;16.60;71.50;;;;;;5087712;28;20563;-64
2022/09/03 03:32:35;;;;;;;1.30;1.10;;;16.50;71.50;;;;;;5092375;28;20040;-64
2022/09/03 03:35:01;;;;;;;1.05;0.93;;;16.50;71.60;;;;;;5094298;28;20059;-64
2022/09/03 03:37:26;;;;;;;7.53;1.92;;;16.50;71.60;;;;;;5087196;28;20494;-64
2022/09/03 03:39:52;;;;;;;2.15;1.10;;;16.50;71.70;;;;;;5099163;28;20498;-64
2022/09/03 03:42:18;;;;;;;1.92;1.08;;;16.50;71.70;;;;;;5085924;28;20040;-64
2022/09/03 03:44:44;;;;;;;3.40;1.00;;;16.50;71.80;;;;;;5095067;28;20028;-65
2022/09/03 03:47:09;;;;;;;1.38;0.90;;;16.50;71.80;;;;;;5096772;28;20515;-64
2022/09/03 03:49:35;;;;;;;1.30;1.10;;;16.50;71.80;;;;;;5101624;28;20401;-64
2022/09/03 03:52:02;;;;;;;2.60;1.27;;;16.50;71.90;;;;;;5092130;28;20513;-65
2022/09/03 03:54:28;;;;;;;3.80;1.20;;;16.50;72.00;;;;;;5084891;28;20036;-65
2022/09/03 03:56:53;;;;;;;3.28;1.30;;;16.50;72.10;;;;;;5088308;28;20040;-64
2022/09/03 03:59:19;;;;;;;2.55;1.20;;;16.50;72.10;;;;;;5091952;28;20055;-64
2022/09/03 04:01:44;;;;;;;4.18;1.20;;;16.40;72.10;;;;;;5090571;28;20119;-64
2022/09/03 04:04:10;;;;;;;1.95;1.05;;;16.40;72.00;;;;;;5100917;28;20040;-64
2022/09/03 04:06:36;;;;;;;1.15;0.90;;;16.40;72.00;;;;;;5090617;28;20063;-64
2022/09/03 04:09:01;;;;;;;2.90;1.25;;;16.40;72.00;;;;;;5088454;28;20062;-64
2022/09/03 04:11:27;;;;;;;1.52;1.10;;;16.40;72.00;;;;;;5089199;28;20041;-65
2022/09/03 04:13:52;;;;;;;2.78;1.25;;;16.40;72.00;;;;;;5105806;28;20043;-64
2022/09/03 04:16:26;;;;;;;1.23;1.00;;;16.30;72.00;;;;;;5092879;28;20042;-65
2022/09/03 04:18:53;;;;;;;1.23;1.00;;;16.30;72.00;;;;;;5090460;28;20505;-64
2022/09/03 04:21:28;;;;;;;3.55;1.15;;;16.30;72.20;;;;;;5084662;28;20040;-65
2022/09/03 04:23:55;;;;;;;1.33;1.10;;;16.30;72.30;;;;;;5087499;28;20040;-65
2022/09/03 04:26:30;;;;;;;1.85;0.95;;;16.30;72.40;;;;;;5082662;28;20397;-65
2022/09/03 04:28:56;;;;;;;6.07;1.25;;;16.20;72.50;;;;;;5086938;28;20048;-65
2022/09/03 04:31:22;;;;;;;1.30;0.88;;;16.20;72.60;;;;;;5084713;28;20063;-65
2022/09/03 04:33:47;;;;;;;1.45;1.15;;;16.10;72.70;;;;;;5098713;28;20028;-65
2022/09/03 04:36:19;;;;;;;3.78;1.27;;;16.10;72.80;;;;;;5100744;28;20039;-65
2022/09/03 04:38:46;;;;;;;1.73;1.25;;;16.10;72.90;;;;;;5080094;28;20068;-65
2022/09/03 04:41:14;;;;;;;2.53;1.20;;;16.10;73.10;;;;;;5093952;28;20554;-65
2022/09/03 04:43:42;;;;;;;1.40;1.08;;;16.10;73.20;;;;;;5092669;28;20040;-65
2022/09/03 04:46:08;;;;;;;3.17;1.00;;;16.00;73.40;;;;;;5097932;27;20414;-65
2022/09/03 04:48:35;;;;;;;2.20;1.02;;;16.00;73.60;;;;;;5099815;28;20040;-65
2022/09/03 04:51:05;;;;;;;2.28;1.17;;;16.00;73.70;;;;;;5098793;28;20047;-66
2022/09/03 04:53:38;;;;;;;2.70;1.10;;;15.90;73.70;;;;;;5084549;28;20568;-65
2022/09/03 04:56:12;;;;;;;2.67;1.27;;;16.00;73.90;;;;;;5097451;28;20110;-65
2022/09/03 04:58:38;;;;;;;1.63;1.10;;;15.90;73.90;;;;;;5094939;28;20138;-65
2022/09/03 05:01:09;;;;;;;2.55;1.30;;;15.90;74.00;;;;;;5090505;28;20115;-65
2022/09/03 05:03:37;;;;;;;1.52;1.20;;;15.90;74.20;;;;;;5096247;28;20074;-65
2022/09/03 05:06:04;;;;;;;1.85;1.25;;;15.90;74.30;;;;;;5091598;28;20122;-65
2022/09/03 05:08:31;;;;;;;1.55;1.10;;;15.80;74.40;;;;;;5089748;28;20494;-65
2022/09/03 05:11:00;;;;;;;2.40;1.00;;;15.80;74.60;;;;;;5085964;28;20123;-65
2022/09/03 05:13:27;;;;;;;3.95;1.13;;;15.80;74.80;;;;;;5086177;28;20546;-65
2022/09/03 05:16:05;;;;;;;1.75;1.20;;;15.80;74.90;;;;;;5090983;28;20038;-65
2022/09/03 05:18:31;;;;;;;1.85;1.25;;;15.80;75.10;;;;;;5082103;28;20494;-65
2022/09/03 05:21:01;;;;;;;1.30;1.05;;;15.80;75.20;;;;;;5081464;28;20039;-65
2022/09/03 05:23:29;;;;;;;2.40;1.27;;;15.70;75.40;;;;;;5090906;28;20032;-65
2022/09/03 05:26:00;;;;;;;2.70;1.05;;;15.70;75.60;;;;;;5089343;28;20036;-65
2022/09/03 05:28:27;;;;;;;3.05;1.00;;;15.70;75.70;;;;;;5090183;28;20079;-65
2022/09/03 05:31:03;;;;;;;1.95;1.10;;;15.70;76.40;;;;;;5079739;28;20028;-65
2022/09/03 05:33:32;;;;;;;2.60;1.10;;;15.70;76.10;;;;;;5085988;28;20040;-65
2022/09/03 05:36:03;;;;;;;3.33;1.40;;;15.70;76.10;;;;;;5101513;28;20028;-65
2022/09/03 05:38:28;;;;;;;2.08;1.27;;;15.70;76.30;;;;;;5085629;28;20394;-65
2022/09/03 05:40:59;;;;;;;2.35;1.33;;;15.70;76.40;;;;;;5091170;28;20032;-65
2022/09/03 05:43:25;;;;;;;2.47;1.25;;;15.70;76.60;;;;;;5083419;28;20387;-65
2022/09/03 05:45:51;;;;;;;2.33;1.20;;;15.70;76.80;;;;;;5086810;28;20135;-65
2022/09/03 05:48:16;;;;;;;4.78;1.20;;;15.70;76.90;;;;;;5089038;28;20115;-65
2022/09/03 05:50:42;;;;;;;1.60;1.30;;;15.70;76.90;;;;;;5074988;28;20037;-64
2022/09/03 05:53:08;;;;;;;1.88;1.10;;;15.80;77.10;;;;;;5085098;28;20407;-64
2022/09/03 05:55:33;;;;;;;2.22;1.40;;;15.80;77.30;;;;;;5089478;28;20036;-64
2022/09/03 05:57:59;;;;;;;2.28;1.20;;;15.80;77.40;;;;;;5094540;28;20493;-64
2022/09/03 06:00:25;;;;;;;1.88;1.30;;;15.80;77.50;;;;;;5091390;28;20032;-64
2022/09/03 06:02:52;;;;;;;4.70;1.38;;;15.80;77.60;;;;;;5091173;28;20039;-64
2022/09/03 06:05:18;;;;;;;1.63;1.10;;;15.90;77.70;;;;;;5082850;28;20040;-64
2022/09/03 06:07:47;;;;;;;2.25;1.35;;;15.90;77.80;;;;;;5093325;28;20043;-64
2022/09/03 06:10:14;;;;;;;1.52;1.25;;;15.90;77.90;;;;;;5088763;28;20043;-64
2022/09/03 06:12:40;;;;;;;2.45;1.23;;;15.90;78.00;;;;;;5089327;28;20137;-64
2022/09/03 06:15:06;;;;;;;2.40;1.20;;;15.90;78.20;;;;;;5086577;28;20461;-64
2022/09/03 06:17:32;;;;;;;1.95;1.30;;;15.90;78.30;;;;;;5089053;28;20040;-64
2022/09/03 06:19:57;;;;;;;3.17;1.20;;;15.90;78.50;;;;;;5079866;28;20055;-64
2022/09/03 06:22:24;;;;;;;4.85;1.20;;;15.90;78.60;;;;;;5081617;28;20052;-65
2022/09/03 06:24:50;;;;;;;2.67;1.23;;;15.90;78.60;;;;;;5078038;28;20039;-64
2022/09/03 06:27:15;;;;;;;3.60;1.30;;;15.90;78.70;;;;;;5073589;28;20170;-64
2022/09/03 06:29:41;;;;;;;1.63;1.20;;;15.90;79.00;;;;;;5079140;28;20036;-64
2022/09/03 06:32:07;;;;;;;2.15;1.23;;;15.90;79.20;;;;;;5077849;28;20074;-64
2022/09/03 06:34:32;;;;;;;2.63;1.30;;;15.90;79.40;;;;;;5080214;28;20028;-64
2022/09/03 06:36:58;;;;;;;3.00;1.27;;;15.90;79.50;;;;;;5082081;28;20408;-64
2022/09/03 06:39:24;;;;;;;2.65;1.40;;;15.80;79.50;;;;;;5078033;28;20055;-64
2022/09/03 06:41:50;;;;;;;2.20;1.30;;;15.90;79.90;;;;;;5094367;28;20127;-64
2022/09/03 06:44:17;;;;;;;1.85;1.30;;;15.80;80.10;;;;;;5096500;28;20093;-64
2022/09/03 06:46:43;;;;;;;2.08;1.20;;;15.80;80.30;;;;;;5097711;28;20502;-64
2022/09/03 06:49:10;;;;;;;7.50;1.60;;;15.80;80.50;;;;;;5089105;28;20051;-64
2022/09/03 06:51:37;;;;;;;6.75;1.60;;;15.90;80.70;;;;;;5091832;28;20487;-64
2022/09/03 06:54:09;;;;;;;2.97;1.63;;;15.90;80.90;;;;;;5081915;28;20045;-64
2022/09/03 06:56:36;;;;;;;1.48;1.15;;;15.90;81.20;;;;;;5094533;28;20035;-64
2022/09/03 06:59:10;;;;;;;1.98;1.20;;;15.90;81.40;;;;;;5097170;28;20036;-64
2022/09/03 07:01:39;;;;;;;2.80;1.42;;;15.90;81.80;;;;;;5100941;28;20044;-64
2022/09/03 07:04:06;;;;;;;4.55;1.48;;;16.00;81.80;;;;;;5079468;28;20059;-64
2022/09/03 07:06:39;;;;;;;3.78;1.80;;;16.00;82.00;;;;;;5094121;28;20119;-64
2022/09/03 07:09:06;;;;;;;2.22;1.40;;;16.00;82.10;;;;;;5100299;28;20323;-64
2022/09/03 07:11:34;;;;;;;3.15;1.40;;;16.00;82.00;;;;;;5098073;28;20051;-64
2022/09/03 07:14:03;;;;;;;2.50;1.40;;;16.10;82.20;;;;;;5085102;28;20483;-64
2022/09/03 07:16:35;;;;;;;2.83;1.35;;;16.10;82.20;;;;;;5094034;28;20036;-64
2022/09/03 07:19:03;;;;;;;2.42;1.58;;;16.10;82.30;;;;;;5104743;27;20072;-64
2022/09/03 07:21:30;;;;;;;2.08;1.27;;;16.20;82.50;;;;;;5093817;28;20051;-65
2022/09/03 07:23:56;;;;;;;3.40;1.60;;;16.20;83.00;;;;;;5085494;28;20040;-64
2022/09/03 07:26:26;;;;;;;2.67;1.63;;;16.20;82.40;;;;;;5072116;28;20371;-65
2022/09/03 07:28:53;;;;;;;2.95;1.48;;;16.30;82.60;;;;;;5104162;28;20047;-64
2022/09/03 07:31:25;;;;;;;3.50;1.48;;;16.30;82.90;;;;;;5085331;28;20051;-65
2022/09/03 07:34:05;;;;;;;3.80;1.38;;;16.30;82.90;;;;;;5112023;27;20040;-65
2022/09/03 07:36:37;;;;;;;2.65;1.60;;;16.40;83.20;;;;;;5094239;28;20039;-65
2022/09/03 07:39:04;;;;;;;2.33;1.42;;;16.40;83.00;;;;;;5083575;28;20036;-64
2022/09/03 07:41:31;;;;;;;6.32;1.70;;;16.50;83.20;;;;;;5088658;28;20036;-65
2022/09/03 07:43:59;;;;;;;4.28;1.50;;;16.50;83.20;;;;;;5087637;28;20035;-65
2022/09/03 07:46:26;;;;;;;4.15;1.60;;;16.50;83.10;;;;;;5089513;28;20421;-64
2022/09/03 07:48:54;;;;;;;4.53;1.88;;;16.50;83.20;;;;;;5082739;28;20040;-65
2022/09/03 07:51:25;;;;;;;4.00;1.50;;;16.60;83.10;;;;;;5098395;28;20070;-65
2022/09/03 07:53:53;;;;;;;2.63;1.60;;;16.60;82.90;;;;;;5089933;28;20387;-64
2022/09/03 07:56:20;;;;;;;3.85;1.58;;;16.60;82.80;;;;;;5109256;27;20462;-64
2022/09/03 07:58:46;;;;;;;3.20;1.60;;;16.70;82.90;;;;;;5084159;28;21584;-64
2022/09/03 08:01:16;;;;;;;2.38;1.27;;;16.70;82.90;;;;;;5080772;28;20412;-64
2022/09/03 08:03:44;;;;;;;2.88;1.50;;;16.70;83.10;;;;;;5088637;28;20036;-64
2022/09/03 08:06:11;;;;;;;2.20;1.48;;;16.80;83.20;;;;;;5079653;28;20372;-64
2022/09/03 08:08:36;;;;;;;3.35;1.60;;;16.80;83.00;;;;;;5078297;28;20040;-64
2022/09/03 08:11:13;;;;;;;3.53;1.75;;;16.90;82.90;;;;;;5079523;28;20050;-64
2022/09/03 08:13:44;;;;;;;4.50;1.70;;;16.90;83.10;;;;;;5083567;28;20131;-64
2022/09/03 08:16:11;;;;;;;1.90;1.52;;;17.00;83.10;;;;;;5082692;28;20036;-64
2022/09/03 08:18:38;;;;;;;3.10;1.50;;;16.90;83.00;;;;;;5084760;28;20036;-64
2022/09/03 08:21:09;;;;;;;4.13;1.98;;;17.00;83.30;;;;;;5085939;28;20048;-64
2022/09/03 08:23:39;;;;;;;4.10;1.50;;;17.10;83.40;;;;;;5075364;28;20086;-64
2022/09/03 08:26:06;;;;;;;2.47;1.40;;;17.20;83.40;;;;;;5086584;28;20259;-64
2022/09/03 08:28:33;;;;;;;1.48;1.25;;;17.20;83.10;;;;;;5088710;28;20032;-64
2022/09/03 08:31:10;;;;;;;7.47;2.40;;;17.20;83.10;;;;;;5086009;28;20036;-64
2022/09/03 08:33:37;;;;;;;3.50;1.40;;;17.30;83.40;;;;;;5085599;28;20044;-64
2022/09/03 08:36:05;;;;;;;5.97;1.50;;;17.40;83.20;;;;;;5058892;28;20032;-64
2022/09/03 08:38:32;;;;;;;2.83;1.60;;;17.40;83.30;;;;;;5072913;28;20036;-64
2022/09/03 08:41:07;;;;;;;2.72;1.60;;;17.50;82.90;;;;;;5073119;28;20079;-64
2022/09/03 08:43:51;;;;;;;3.58;1.63;;;17.50;82.80;;;;;;5073042;28;20439;-64
2022/09/03 08:46:16;;;;;;;5.43;1.35;;;17.60;82.70;;;;;;5075379;28;20083;-64
2022/09/03 08:48:42;;;;;;;4.05;1.25;;;17.70;82.80;;;;;;5076054;28;20068;-64
2022/09/03 08:51:10;;;;;;;2.38;1.30;;;17.80;82.90;;;;;;5071486;28;20110;-65
2022/09/03 08:53:45;;;;;;;4.00;1.20;;;17.90;82.90;;;;;;5069922;28;20287;-65
2022/09/03 08:56:30;;;;;;;3.05;1.38;;;18.10;83.30;;;;;;5072990;28;20032;-64
2022/09/03 08:58:55;;;;;;;4.43;1.48;;;18.30;83.20;;;;;;5075386;28;20050;-64
2022/09/03 09:01:45;;;;;;;6.38;1.40;;;18.50;82.90;;;;;;5071152;28;20032;-64
2022/09/03 09:04:33;;;;;;;1.75;1.20;;;18.80;82.00;;;;;;5075188;28;20519;-64
2022/09/03 09:07:23;;;;;;;5.15;1.50;;;19.10;80.80;;;;;;5079665;28;20039;-65
2022/09/03 09:10:10;;;;;;;3.08;1.55;;;19.40;80.00;;;;;;5080375;28;20047;-65
2022/09/03 09:13:04;;;;;;;2.60;1.60;;;19.60;79.50;;;;;;5075716;28;20044;-64
2022/09/03 09:15:35;;;;;;;2.70;1.50;;;19.90;78.10;;;;;;5075327;28;20079;-65
2022/09/03 09:18:15;;;;;;;2.85;1.60;;;20.10;78.90;;;;;;5076090;28;20043;-65
2022/09/03 09:21:00;;;;;;;2.30;1.50;;;20.30;78.10;;;;;;5084754;28;20580;-65
2022/09/03 09:23:28;;;;;;;7.05;1.55;;;20.60;75.80;;;;;;5083476;28;20104;-65
2022/09/03 09:25:56;;;;;;;3.92;1.33;;;20.80;75.70;;;;;;5084553;28;20039;-65
2022/09/03 09:28:33;;;;;;;6.05;1.52;;;20.90;75.00;;;;;;5091747;28;20036;-65
2022/09/03 09:31:02;;;;;;;8.07;1.30;;;21.20;75.10;;;;;;5080608;28;20666;-65
2022/09/03 09:33:33;;;;;;;2.25;1.40;;;21.40;74.10;;;;;;5105669;28;20036;-65
2022/09/03 09:36:05;;;;;;;2.85;1.30;;;21.60;73.70;;;;;;5088810;28;20130;-65
2022/09/03 09:38:35;;;;;;;2.40;1.35;;;21.80;72.70;;;;;;5084945;28;20056;-65
2022/09/03 09:41:14;;;;;;;3.10;1.30;;;22.00;72.00;;;;;;5094777;28;20619;-65
2022/09/03 09:43:40;;;;;;;4.28;1.38;;;22.10;70.00;;;;;;5080032;28;20033;-65
2022/09/03 09:46:13;;;;;;;4.60;1.48;;;22.30;71.10;;;;;;5090810;28;20102;-65
2022/09/03 09:48:57;;;;;;;3.40;1.38;;;22.40;69.70;;;;;;5084838;28;20040;-65
2022/09/03 09:51:30;;;;;;;2.95;1.27;;;22.60;68.00;;;;;;5096780;28;20444;-65
2022/09/03 09:54:26;;;;;;;3.30;1.67;;;22.70;68.40;;;;;;5067487;28;20079;-65
2022/09/03 09:57:07;;;;;;;2.20;1.30;;;22.90;66.30;;;;;;5090173;28;20040;-65
2022/09/03 09:59:34;;;;;;;4.67;1.40;;;23.00;66.60;;;;;;5093765;28;20036;-65
2022/09/03 10:02:10;;;;;;;2.70;1.55;;;23.20;67.40;;;;;;5083540;28;20274;-65
2022/09/03 10:04:36;;;;;;;3.53;1.45;;;23.30;65.80;;;;;;5081043;28;20503;-65
2022/09/03 10:07:18;;;;;;;4.28;1.40;;;23.50;65.80;;;;;;5079419;28;20032;-65
2022/09/03 10:09:44;;;;;;;3.85;1.50;;;23.50;64.90;;;;;;5078504;28;20040;-65
2022/09/03 10:12:18;;;;;;;2.15;1.33;;;23.60;64.60;;;;;;5092696;28;20512;-65
2022/09/03 10:15:07;;;;;;;2.65;1.50;;;23.70;64.00;;;;;;5078637;28;20048;-65
2022/09/03 10:17:47;;;;;;;2.97;1.20;;;23.90;63.80;;;;;;5081450;28;20076;-65
2022/09/03 10:20:32;;;;;;;3.03;1.15;;;24.10;63.10;;;;;;5069790;28;20043;-65
2022/09/03 10:23:07;;;;;;;2.38;1.45;;;24.20;63.40;;;;;;5073216;28;20049;-65
2022/09/03 10:26:11;;;;;;;2.15;1.30;;;24.40;62.60;;;;;;5077354;28;20122;-65
2022/09/03 10:28:40;;;;;;;3.05;1.20;;;24.50;60.80;;;;;;5073186;28;20515;-65
2022/09/03 10:31:40;;;;;;;3.40;1.40;;;24.60;60.90;;;;;;5069484;28;20132;-65
2022/09/03 10:34:09;;;;;;;5.00;1.50;;;24.60;60.00;;;;;;5091646;28;20040;-65
2022/09/03 10:37:07;;;;;;;5.57;1.60;;;24.70;61.20;;;;;;5072839;28;20048;-66
2022/09/03 10:40:04;;;;;;;2.03;1.45;;;24.80;60.40;;;;;;5077821;28;20044;-66
2022/09/03 10:42:53;;;;;;;6.45;1.40;;;24.90;58.30;;;;;;5077999;28;20047;-65
2022/09/03 10:45:36;;;;;;;3.40;1.35;;;25.00;58.60;;;;;;5070837;28;20131;-65
2022/09/03 10:48:31;;;;;;;1.80;1.33;;;25.00;59.20;;;;;;5081335;28;20075;-65
2022/09/03 10:51:12;;;;;;;1.88;1.33;;;25.10;57.60;;;;;;5076533;28;20036;-65
2022/09/03 10:53:59;;;;;;;2.97;1.63;;;25.10;57.50;;;;;;5071654;28;20094;-65
2022/09/03 10:56:39;;;;;;;3.72;1.40;;;25.10;57.50;;;;;;5078186;28;20032;-65
2022/09/03 10:59:55;;;;;;;2.72;1.40;;;25.20;57.80;;;;;;5078691;28;20434;-65
2022/09/03 11:02:49;;;;;;;3.63;1.33;;;25.30;56.30;;;;;;5071010;28;20549;-65
2022/09/03 11:05:32;;;;;;;2.55;1.40;;;25.50;56.80;;;;;;5086588;28;20051;-66
2022/09/03 11:08:11;;;;;;;3.38;1.30;;;25.60;56.10;;;;;;5085795;28;20547;-67
2022/09/03 11:10:44;;;;;;;6.75;1.40;;;25.60;55.80;;;;;;5079852;28;20071;-67
2022/09/03 11:13:19;;;;;;;4.28;1.30;;;25.80;53.90;;;;;;5075789;28;20139;-67
2022/09/03 11:15:52;;;;;;;2.20;1.20;;;25.80;54.40;;;;;;5077533;28;20089;-67
2022/09/03 11:18:18;;;;;;;3.47;1.30;;;25.80;55.00;;;;;;5082248;28;20051;-67
2022/09/03 11:20:44;;;;;;;3.15;1.30;;;25.90;55.20;;;;;;5078463;28;20043;-67
2022/09/03 11:23:12;;;;;;;1.77;1.20;;;26.00;55.30;;;;;;5078346;28;20560;-67
2022/09/03 11:25:45;;;;;;;1.88;1.30;;;26.10;55.30;;;;;;5075999;28;20050;-67
2022/09/03 11:28:36;;;;;;;3.60;1.70;;;26.10;53.60;;;;;;5086127;28;20045;-67
2022/09/03 11:31:16;;;;;;;2.00;1.40;;;26.20;53.30;;;;;;5074677;28;20060;-67
2022/09/03 11:33:48;;;;;;;2.45;1.30;;;26.30;53.90;;;;;;5075110;28;20089;-67
2022/09/03 11:36:27;;;;;;;3.25;1.40;;;26.40;53.60;;;;;;5084788;28;20111;-67
2022/09/03 11:38:53;;;;;;;3.00;1.42;;;26.40;53.00;;;;;;5081911;28;20042;-67
2022/09/03 11:41:21;;;;;;;1.60;1.30;;;26.40;52.50;;;;;;5080599;28;20041;-67
2022/09/03 11:43:47;;;;;;;1.35;1.25;;;26.40;52.30;;;;;;5085299;28;20055;-66
2022/09/03 11:46:27;;;;;;;2.70;1.40;;;26.40;52.60;;;;;;5080766;28;20479;-67
2022/09/03 11:48:55;;;;;;;1.50;1.30;;;26.40;52.00;;;;;;5073435;28;20228;-67
2022/09/03 11:51:24;;;;;;;1.77;1.40;;;26.40;52.20;;;;;;5075872;28;20394;-67
2022/09/03 11:53:58;;;;;;;2.08;1.40;;;26.50;51.90;;;;;;5074250;28;20174;-67
2022/09/03 11:56:24;;;;;;;1.27;1.17;;;26.50;51.30;;;;;;5070942;28;20048;-67
2022/09/03 11:58:59;;;;;;;2.35;1.25;;;26.50;51.50;;;;;;5066825;28;20347;-67
2022/09/03 12:01:27;;;;;;;2.95;1.30;;;26.50;51.00;;;;;;5081832;28;20036;-66
2022/09/03 12:04:04;;;;;;;3.00;1.10;;;26.60;51.20;;;;;;5107801;27;20045;-67
2022/09/03 12:06:42;;;;;;;1.23;1.10;;;26.60;50.90;;;;;;5082133;28;20293;-67
2022/09/03 12:09:34;;;;;;;1.23;1.00;;;26.70;50.90;;;;;;5083624;28;20469;-67
2022/09/03 12:12:08;;;;;;;2.20;1.30;;;26.70;50.70;;;;;;5081907;28;20470;-67
2022/09/03 12:15:13;;;;;;;2.03;1.33;;;26.80;50.70;;;;;;5085759;28;20052;-67
2022/09/03 12:18:18;;;;;;;1.50;1.40;;;26.90;49.90;;;;;;5047656;28;20048;-67
2022/09/03 12:20:45;;;;;;;1.40;1.30;;;26.90;49.90;;;;;;5090935;28;20502;-67
2022/09/03 12:23:28;;;;;;;1.65;1.20;;;26.90;50.20;;;;;;5077144;28;20052;-67
2022/09/03 12:25:54;;;;;;;3.67;1.30;;;27.00;50.50;;;;;;5071576;28;20037;-67
2022/09/03 12:28:23;;;;;;;1.48;1.38;;;27.00;50.70;;;;;;5082785;28;20036;-67
2022/09/03 12:30:52;;;;;;;2.05;1.35;;;27.00;50.70;;;;;;5082328;28;20036;-66
2022/09/03 12:33:20;;;;;;;1.35;1.20;;;27.00;49.90;;;;;;5069721;28;20058;-67
2022/09/03 12:36:00;;;;;;;1.77;1.27;;;26.90;49.80;;;;;;5080456;28;20499;-67
2022/09/03 12:38:31;;;;;;;3.20;1.30;;;26.90;49.90;;;;;;5073007;28;20119;-66
2022/09/03 12:40:57;;;;;;;4.07;1.23;;;26.90;50.20;;;;;;5071889;28;20032;-66
2022/09/03 12:43:28;;;;;;;2.15;1.20;;;26.90;49.60;;;;;;5075440;28;20051;-67
2022/09/03 12:45:53;;;;;;;2.95;1.30;;;27.00;49.50;;;;;;5072012;28;20040;-66
2022/09/03 12:48:20;;;;;;;9.50;1.30;;;27.00;50.00;;;;;;5076800;28;20043;-66
2022/09/03 12:50:48;;;;;;;1.50;1.20;;;27.00;50.10;;;;;;5090642;28;20047;-66
2022/09/03 12:53:23;;;;;;;1.33;1.10;;;27.00;50.00;;;;;;5092643;28;20502;-66
2022/09/03 12:55:57;;;;;;;1.67;1.30;;;27.00;50.10;;;;;;5076947;28;20439;-66
2022/09/03 12:58:47;;;;;;;1.90;1.27;;;27.00;50.50;;;;;;5085193;28;20483;-66
2022/09/03 13:01:30;;;;;;;2.33;1.13;;;27.00;50.50;;;;;;5081750;28;20031;-67
2022/09/03 13:04:08;;;;;;;2.70;1.30;;;27.00;50.40;;;;;;5096821;28;20111;-66
2022/09/03 13:06:59;;;;;;;2.17;1.30;;;27.00;49.80;;;;;;5087160;28;20129;-64
2022/09/03 13:09:28;;;;;;;1.40;1.30;;;27.00;50.30;;;;;;5076174;28;20382;-66
2022/09/03 13:11:55;;;;;;;2.10;1.52;;;27.10;50.90;;;;;;5089483;28;20072;-66
2022/09/03 13:14:21;;;;;;;2.70;1.25;;;27.10;50.50;;;;;;5076400;28;20403;-66
2022/09/03 13:16:49;;;;;;;2.30;1.10;;;27.20;50.70;;;;;;5087860;28;20044;-64
2022/09/03 13:19:52;;;;;;;7.78;1.65;;;27.20;50.60;;;;;;5075807;28;20033;-66